Time;durP1;ratioP1;P1;durP2;ratioP2;P2;SDS_P1;SDS_P2;PMS_P1;PMS_P2;Temp;Humidity;BMP_temperature;BMP_pressure;BME280_temperature;BME280_humidity;BME280_pressure;Samples;Min_cycle;Max_cycle;Signal;HPM_P1;HPM_P2
2022/04/18 00:02:47;;;;;;;3.27;2.53;;;;;;;-0.42;100.00;97197.78;10494051;28;20203;-52
2022/04/18 00:07:47;;;;;;;2.10;1.83;;;;;;;-0.45;100.00;97190.22;10492165;28;20265;-54
2022/04/18 00:12:48;;;;;;;2.53;2.07;;;;;;;-0.51;100.00;97190.53;10492244;28;20215;-53
2022/04/18 00:17:48;;;;;;;4.27;3.30;;;;;;;-0.60;100.00;97189.22;10494185;28;20243;-57
2022/04/18 00:22:48;;;;;;;5.13;2.80;;;;;;;-0.61;100.00;97195.28;10494349;28;20210;-54
2022/04/18 00:27:49;;;;;;;3.93;3.03;;;;;;;-0.61;100.00;97187.56;10493685;28;20215;-57
2022/04/18 00:32:49;;;;;;;2.30;2.10;;;;;;;-0.59;100.00;97190.91;10490488;28;20245;-54
2022/04/18 00:37:50;;;;;;;2.97;2.13;;;;;;;-0.57;100.00;97186.50;10491138;28;20611;-60
2022/04/18 00:42:50;;;;;;;4.50;3.03;;;;;;;-0.65;100.00;97173.19;10475689;28;20558;-56
2022/04/18 00:47:51;;;;;;;3.47;2.97;;;;;;;-0.66;100.00;97174.94;10493155;28;20816;-56
2022/04/18 00:52:51;;;;;;;3.73;2.33;;;;;;;-0.66;100.00;97158.66;10492914;28;20256;-55
2022/04/18 00:57:53;;;;;;;3.83;2.70;;;;;;;-0.67;100.00;97155.25;10492748;28;20218;-56
2022/04/18 01:02:54;;;;;;;3.47;2.87;;;;;;;-0.76;100.00;97140.28;10492069;28;20191;-54
2022/04/18 01:07:54;;;;;;;2.33;2.13;;;;;;;-0.75;100.00;97142.78;10492416;28;20214;-54
2022/04/18 01:12:59;;;;;;;4.20;2.30;;;;;;;-0.74;100.00;97123.84;10474130;28;20536;-54
2022/04/18 01:18:12;;;;;;;2.03;1.90;;;;;;;-0.75;100.00;97124.78;10473105;28;20200;-55
2022/04/18 01:23:39;;;;;;;3.43;2.50;;;;;;;-0.78;100.00;97124.06;10473899;28;20187;-56
2022/04/18 01:29:00;;;;;;;4.17;2.13;;;;;;;-0.82;100.00;97113.09;10490968;28;20238;-57
2022/04/18 01:34:04;;;;;;;8.57;2.03;;;;;;;-0.83;100.00;97108.88;10473261;28;20195;-52
2022/04/18 01:39:04;;;;;;;3.47;2.60;;;;;;;-0.81;100.00;97107.06;10472350;28;20227;-54
2022/04/18 01:44:05;;;;;;;5.03;2.60;;;;;;;-0.88;100.00;97097.97;10490848;28;20188;-53
2022/04/18 01:49:05;;;;;;;6.27;2.03;;;;;;;-0.92;100.00;97091.31;10472438;28;20230;-52
2022/04/18 01:54:06;;;;;;;5.37;2.90;;;;;;;-0.98;100.00;97076.19;10472737;28;20195;-59
2022/04/18 01:59:06;;;;;;;3.43;2.37;;;;;;;-1.01;100.00;97073.78;10472328;28;20222;-56
2022/04/18 02:04:07;;;;;;;3.60;2.77;;;;;;;-0.94;100.00;97070.81;10472438;28;20245;-59
2022/04/18 02:09:08;;;;;;;5.93;3.03;;;;;;;-0.94;100.00;97067.44;10472156;28;20708;-58
2022/04/18 02:14:09;;;;;;;3.87;3.00;;;;;;;-0.99;100.00;97065.09;10471916;28;20201;-55
2022/04/18 02:19:10;;;;;;;3.63;3.07;;;;;;;-1.01;100.00;97063.50;10471941;28;20713;-58
2022/04/18 02:24:14;;;;;;;2.73;2.53;;;;;;;-1.02;100.00;97057.53;10472163;28;20255;-56
2022/04/18 02:29:14;;;;;;;5.73;3.10;;;;;;;-1.07;100.00;97046.66;10471526;28;20250;-57
2022/04/18 02:34:14;;;;;;;3.10;2.80;;;;;;;-1.05;100.00;97046.56;10471757;28;20210;-59
2022/04/18 02:39:15;;;;;;;3.10;2.70;;;;;;;-1.04;100.00;97038.78;10470912;28;20310;-58
2022/04/18 02:44:15;;;;;;;3.90;3.33;;;;;;;-1.05;100.00;97037.13;10489577;28;20249;-54
2022/04/18 02:49:16;;;;;;;5.30;3.50;;;;;;;-1.08;100.00;97027.81;10471237;28;20784;-58
2022/04/18 02:54:17;;;;;;;6.60;3.77;;;;;;;-1.09;100.00;97030.44;10471476;28;20214;-60
2022/04/18 02:59:18;;;;;;;3.27;2.97;;;;;;;-1.09;100.00;97023.59;10470862;28;20205;-60
2022/04/18 03:04:19;;;;;;;8.90;3.30;;;;;;;-1.11;100.00;97016.84;10489485;28;20191;-58
2022/04/18 03:09:20;;;;;;;6.17;3.43;;;;;;;-1.11;100.00;97009.97;10501656;22;20710;-56
2022/04/18 03:14:20;;;;;;;4.60;3.43;;;;;;;-1.12;100.00;97010.88;10432830;28;20726;-56
2022/04/18 03:19:29;;;;;;;5.03;3.63;;;;;;;-1.15;100.00;96998.19;10433418;28;20204;-60
2022/04/18 03:24:33;;;;;;;4.93;4.17;;;;;;;-1.13;100.00;96991.22;10433024;28;20215;-57
2022/04/18 03:29:46;;;;;;;6.53;3.77;;;;;;;-1.13;100.00;96986.06;10433048;28;20223;-56
2022/04/18 03:34:51;;;;;;;4.27;3.20;;;;;;;-1.14;100.00;96981.00;10432379;28;20188;-56
2022/04/18 03:39:51;;;;;;;5.70;3.33;;;;;;;-1.13;100.00;96974.97;10436900;28;20208;-57
2022/04/18 03:44:59;;;;;;;5.83;3.90;;;;;;;-1.17;100.00;96982.00;10440192;28;20192;-58
2022/04/18 03:50:00;;;;;;;4.13;3.70;;;;;;;-1.20;100.00;96971.03;10439646;28;20704;-58
2022/04/18 03:55:00;;;;;;;6.23;3.77;;;;;;;-1.13;100.00;96973.22;10440094;28;20286;-56
2022/04/18 04:00:08;;;;;;;5.70;4.57;;;;;;;-1.18;100.00;96966.66;10439120;28;20625;-54
2022/04/18 04:05:14;;;;;;;4.63;2.87;;;;;;;-1.13;100.00;96974.97;10457630;28;20202;-53
2022/04/18 04:10:17;;;;;;;4.03;3.47;;;;;;;-1.17;100.00;96976.84;10439197;28;20284;-57
2022/04/18 04:15:18;;;;;;;3.70;2.80;;;;;;;-1.15;100.00;96975.06;10438971;28;20253;-56
2022/04/18 04:20:27;;;;;;;6.53;3.83;;;;;;;-1.12;100.00;96967.19;10438901;28;20222;-61
2022/04/18 04:25:27;;;;;;;5.50;3.83;;;;;;;-1.09;100.00;96976.47;10438814;28;20192;-60
2022/04/18 04:30:28;;;;;;;4.30;3.40;;;;;;;-1.00;100.00;96975.16;10438583;28;20306;-61
2022/04/18 04:35:34;;;;;;;5.43;3.73;;;;;;;-0.97;100.00;96977.59;10437791;28;20194;-59
2022/04/18 04:40:48;;;;;;;7.10;5.03;;;;;;;-0.97;100.00;96973.25;10438260;28;20601;-56
2022/04/18 04:45:54;;;;;;;5.83;3.47;;;;;;;-0.86;100.00;96972.72;10437980;28;20184;-57
2022/04/18 04:51:00;;;;;;;4.70;3.83;;;;;;;-0.79;100.00;96983.53;10437807;28;20592;-57
2022/04/18 04:56:01;;;;;;;9.67;5.20;;;;;;;-0.79;100.00;96973.25;10434299;28;20193;-59
2022/04/18 05:01:02;;;;;;;6.63;4.23;;;;;;;-0.77;100.00;96973.97;10407109;28;20703;-56
2022/04/18 05:06:21;;;;;;;6.00;4.47;;;;;;;-0.74;100.00;96966.09;10413292;28;20197;-60
2022/04/18 05:11:21;;;;;;;4.57;3.63;;;;;;;-0.62;100.00;96970.59;10412024;28;20475;-60
2022/04/18 05:16:25;;;;;;;5.10;3.00;;;;;;;-0.35;100.00;96970.06;10394576;28;20254;-61
2022/04/18 05:21:25;;;;;;;4.20;3.80;;;;;;;-0.15;100.00;96966.41;10412917;28;20350;-60
2022/04/18 05:26:29;;;;;;;5.83;4.27;;;;;;;-0.07;100.00;96961.66;10392533;28;20230;-58
2022/04/18 05:31:30;;;;;;;3.27;2.47;;;;;;;0.24;100.00;96959.13;10410199;28;20220;-61
2022/04/18 05:36:32;;;;;;;6.27;4.53;;;;;;;0.45;100.00;96965.63;10410912;28;20191;-60
2022/04/18 05:41:33;;;;;;;6.17;4.80;;;;;;;0.79;100.00;96968.00;10411353;28;20205;-59
2022/04/18 05:46:35;;;;;;;5.63;4.23;;;;;;;1.40;100.00;96968.69;10410876;28;20206;-59
2022/04/18 05:51:37;;;;;;;8.80;4.27;;;;;;;2.13;100.00;96970.22;10410768;28;20310;-58
2022/04/18 05:56:38;;;;;;;8.33;3.47;;;;;;;2.77;100.00;96957.44;10392682;28;20192;-61
2022/04/18 06:02:08;;;;;;;8.23;4.37;;;;;;;3.28;100.00;96950.59;10391245;28;20213;-61
2022/04/18 06:07:11;;;;;;;5.87;3.30;;;;;;;4.55;100.00;96916.53;10388911;28;20191;-58
2022/04/18 06:12:11;;;;;;;5.67;3.57;;;;;;;5.22;95.21;96896.78;10390385;28;20221;-61
2022/04/18 06:17:13;;;;;;;4.27;3.50;;;;;;;5.66;88.39;96864.72;10408507;28;20196;-59
2022/04/18 06:22:16;;;;;;;6.13;3.30;;;;;;;6.00;86.04;96854.28;10393576;28;20211;-59
2022/04/18 06:27:16;;;;;;;4.90;3.17;;;;;;;6.16;86.40;96872.03;10393343;28;20185;-59
2022/04/18 06:32:18;;;;;;;3.83;3.13;;;;;;;7.29;79.20;96802.75;10409566;28;20212;-56
2022/04/18 06:37:19;;;;;;;5.93;3.03;;;;;;;8.09;74.33;96747.88;10409585;28;20735;-58
2022/04/18 06:42:37;;;;;;;4.43;2.97;;;;;;;8.08;74.96;96788.78;10392861;28;20184;-59
2022/04/18 06:47:40;;;;;;;6.67;4.10;;;;;;;8.74;70.00;96721.84;10392920;28;20239;-59
2022/04/18 06:52:50;;;;;;;4.53;3.83;;;;;;;8.73;69.31;96710.59;10409321;28;20216;-56
2022/04/18 06:58:09;;;;;;;8.00;4.60;;;;;;;9.43;69.73;96745.81;10410513;28;20207;-59
2022/04/18 07:03:10;;;;;;;8.23;4.93;;;;;;;10.87;63.96;96653.81;10392803;28;20667;-58
2022/04/18 07:08:10;;;;;;;5.60;4.40;;;;;;;11.80;59.09;96600.25;10392028;28;20244;-59
2022/04/18 07:13:11;;;;;;;6.95;4.32;;;;;;;12.52;58.43;96620.44;10411340;28;20272;-60
2022/04/18 07:18:12;;;;;;;7.00;4.30;;;;;;;12.97;55.79;96591.75;10415699;28;20212;-56
2022/04/18 07:23:13;;;;;;;6.30;4.65;;;;;;;11.24;59.73;96656.03;10416762;28;20181;-60
2022/04/18 07:28:25;;;;;;;7.00;5.10;;;;;;;12.65;56.43;96617.25;10416194;28;20220;-62
2022/04/18 07:33:25;;;;;;;6.45;4.70;;;;;;;11.99;56.70;96612.25;10416347;28;20192;-58
2022/04/18 07:43:47;;;;;;;8.38;4.40;;;;;;;13.17;53.25;96577.16;10417861;28;20189;-55
2022/04/18 07:48:49;;;;;;;8.35;5.20;;;;;;;12.60;57.11;96665.09;10415535;28;20220;-58
2022/04/18 07:53:50;;;;;;;6.45;4.72;;;;;;;12.13;57.99;96669.31;10398922;28;20328;-57
2022/04/18 07:58:51;;;;;;;6.30;4.72;;;;;;;11.81;59.23;96693.78;10397568;28;20312;-61
2022/04/18 08:04:02;;;;;;;7.03;4.93;;;;;;;12.77;56.32;96650.06;10398827;28;20200;-62
2022/04/18 08:09:04;;;;;;;7.38;4.57;;;;;;;12.93;56.16;96650.97;10414611;28;20366;-62
2022/04/18 08:14:04;;;;;;;8.32;4.55;;;;;;;13.25;52.33;96571.03;10415993;28;20215;-59
2022/04/18 08:19:16;;;;;;;8.63;5.18;;;;;;;12.67;52.12;96542.50;10397964;28;20201;-55
2022/04/18 08:24:17;;;;;;;5.35;4.82;;;;;;;12.71;49.95;96497.47;10397267;28;20645;-57
2022/04/18 08:29:50;;;;;;;6.10;4.22;;;;;;;14.32;43.00;96348.63;10414224;28;20216;-58
2022/04/18 08:34:55;;;;;;;5.47;4.28;;;;;;;14.37;45.33;96430.56;10397317;28;20209;-59
2022/04/18 08:39:56;;;;;;;7.50;4.53;;;;;;;16.04;41.58;96376.28;10397129;28;20208;-58
2022/04/18 08:45:01;;;;;;;4.70;3.80;;;;;;;14.03;43.71;96386.44;10397281;28;20562;-56
2022/04/18 08:55:26;;;;;;;7.25;3.55;;;;;;;13.20;45.01;96423.44;10397099;28;20271;-60
2022/04/18 09:00:28;;;;;;;5.82;3.85;;;;;;;14.25;46.45;96498.75;10412404;28;20209;-60
2022/04/18 09:05:43;;;;;;;4.25;3.30;;;;;;;15.26;42.50;96384.44;10396213;28;20189;-61
2022/04/18 09:10:48;;;;;;;6.35;4.10;;;;;;;15.38;41.56;96370.72;10476836;23;20709;-59
2022/04/18 09:15:49;;;;;;;6.82;3.72;;;;;;;16.63;39.26;96339.56;10478369;28;20191;-59
2022/04/18 09:20:50;;;;;;;5.65;3.75;;;;;;;15.90;39.64;96335.00;10494519;28;20693;-60
2022/04/18 09:25:57;;;;;;;4.63;3.70;;;;;;;15.82;42.06;96404.66;10475304;28;20286;-61
2022/04/18 09:31:08;;;;;;;5.43;4.28;;;;;;;16.28;38.79;96312.47;10476366;28;20649;-60
2022/04/18 09:36:12;;;;;;;8.98;4.30;;;;;;;16.69;39.22;96330.81;10476121;28;20222;-61
2022/04/18 09:41:19;;;;;;;7.88;4.00;;;;;;;16.08;41.12;96370.59;10477322;28;20206;-59
2022/04/18 09:46:22;;;;;;;4.55;3.25;;;;;;;15.65;40.24;96332.03;10476451;28;20187;-59
2022/04/18 09:51:29;;;;;;;4.38;2.90;;;;;;;15.27;40.69;96335.94;10476641;28;20215;-56
2022/04/18 09:56:49;;;;;;;4.57;3.17;;;;;;;16.39;38.27;96296.03;10476320;28;20240;-59
2022/04/18 10:01:50;;;;;;;3.85;3.22;;;;;;;15.76;41.49;96375.53;10494173;28;20257;-62
2022/04/18 10:06:52;;;;;;;3.95;3.10;;;;;;;16.96;39.21;96343.22;10494152;28;20248;-58
2022/04/18 10:11:52;;;;;;;4.35;3.40;;;;;;;17.29;40.61;96382.88;10493754;28;20228;-60
2022/04/18 10:16:53;;;;;;;3.40;3.10;;;;;;;17.70;38.59;96328.72;10475630;28;20566;-61
2022/04/18 10:22:16;;;;;;;4.65;3.35;;;;;;;17.59;39.99;96372.56;10493837;28;20752;-59
2022/04/18 10:27:34;;;;;;;4.63;3.25;;;;;;;16.72;41.54;96387.75;10476095;28;20191;-59
2022/04/18 10:32:35;;;;;;;5.20;2.55;;;;;;;15.02;43.40;96384.91;10475900;28;20235;-60
2022/04/18 10:37:41;;;;;;;4.32;3.50;;;;;;;15.20;45.02;96431.91;10475426;28;20270;-60
2022/04/18 10:42:41;;;;;;;6.40;4.00;;;;;;;16.32;43.26;96391.16;10493479;28;20620;-61
2022/04/18 10:48:00;;;;;;;5.03;3.30;;;;;;;15.36;43.90;96370.91;10495850;28;20224;-60
2022/04/18 10:53:17;;;;;;;4.50;3.20;;;;;;;16.86;42.63;96396.50;10501861;28;20222;-59
2022/04/18 10:58:24;;;;;;;4.25;3.22;;;;;;;16.30;43.55;96397.69;10501416;28;20688;-60
2022/04/18 11:03:51;;;;;;;4.00;3.30;;;;;;;15.91;43.74;96394.75;10501388;28;20202;-58
2022/04/18 11:08:59;;;;;;;3.83;3.42;;;;;;;17.58;41.51;96386.03;10483828;28;20241;-62
2022/04/18 11:14:00;;;;;;;5.28;3.30;;;;;;;16.84;42.06;96367.59;10501271;28;20191;-63
2022/04/18 11:19:06;;;;;;;3.78;3.30;;;;;;;17.85;40.66;96354.16;10500042;28;20203;-63
2022/04/18 11:24:31;;;;;;;6.40;3.50;;;;;;;18.28;40.25;96346.38;10500587;28;20266;-63
2022/04/18 11:29:32;;;;;;;3.63;3.33;;;;;;;18.95;39.87;96348.53;10499962;28;20305;-63
2022/04/18 11:34:33;;;;;;;6.38;3.30;;;;;;;18.14;41.28;96361.56;10500224;28;20273;-63
2022/04/18 11:39:49;;;;;;;3.88;3.47;;;;;;;16.56;43.19;96373.13;10499851;28;20253;-62
2022/04/18 11:44:51;;;;;;;4.50;3.38;;;;;;;14.33;48.11;96457.47;10499598;28;20194;-61
2022/04/18 11:49:58;;;;;;;7.65;4.63;;;;;;;15.61;48.03;96494.53;10499522;28;20277;-62
2022/04/18 11:55:03;;;;;;;4.60;3.58;;;;;;;16.88;44.36;96427.06;10494282;28;20195;-61
2022/04/18 12:00:09;;;;;;;4.30;2.90;;;;;;;16.25;43.89;96368.38;10497966;28;20212;-63
2022/04/18 12:10:35;;;;;;;5.13;2.85;;;;;;;15.13;45.09;96373.81;10498339;28;20231;-62
2022/04/18 12:15:36;;;;;;;5.78;2.85;;;;;;;13.16;50.90;96474.75;10498235;28;20229;-60
2022/04/18 12:20:40;;;;;;;6.13;3.63;;;;;;;14.71;47.31;96407.19;10498271;28;20624;-62
2022/04/18 12:25:44;;;;;;;3.33;3.03;;;;;;;15.62;47.01;96436.25;10498088;28;20559;-60
2022/04/18 12:30:46;;;;;;;2.92;2.58;;;;;;;15.67;45.70;96381.00;10480146;28;20221;-62
2022/04/18 12:35:51;;;;;;;3.72;2.83;;;;;;;13.54;49.76;96432.66;10497717;28;20632;-60
2022/04/18 12:40:56;;;;;;;9.98;4.30;;;;;;;14.34;49.77;96446.75;10497416;28;20211;-61
2022/04/18 12:45:58;;;;;;;2.55;2.35;;;;;;;15.82;46.55;96406.50;10497259;28;20191;-60
2022/04/18 12:51:00;;;;;;;2.80;2.13;;;;;;;14.65;46.41;96352.59;10497235;28;20697;-61
2022/04/18 12:56:05;;;;;;;2.50;2.25;;;;;;;15.29;46.51;96377.97;10496767;28;20646;-63
2022/04/18 13:01:05;;;;;;;3.13;2.10;;;;;;;15.48;45.29;96334.19;10496898;28;20560;-62
2022/04/18 13:06:06;;;;;;;4.45;2.30;;;;;;;15.79;46.22;96373.38;10496273;28;20191;-60
2022/04/18 13:11:07;;;;;;;3.15;1.98;;;;;;;18.14;41.43;96297.91;10494607;28;20243;-61
2022/04/18 13:16:21;;;;;;;2.75;1.92;;;;;;;16.85;41.61;96252.84;10495634;28;20310;-60
2022/04/18 13:21:21;;;;;;;5.80;2.85;;;;;;;15.77;44.77;96316.44;10495562;28;20261;-62
2022/04/18 13:26:22;;;;;;;2.97;2.00;;;;;;;14.69;46.93;96344.09;10495492;28;20223;-61
2022/04/18 13:31:23;;;;;;;2.20;2.00;;;;;;;15.75;44.37;96305.25;10495106;28;20223;-59
2022/04/18 13:36:38;;;;;;;2.28;1.65;;;;;;;16.92;41.37;96245.72;10494870;28;20733;-61
2022/04/18 13:41:40;;;;;;;2.45;2.13;;;;;;;16.84;42.64;96267.06;10493523;28;20260;-58
2022/04/18 13:46:40;;;;;;;5.25;2.30;;;;;;;15.32;45.79;96314.25;10494616;28;20266;-58
2022/04/18 13:51:41;;;;;;;3.08;2.00;;;;;;;17.40;41.04;96223.34;10494235;28;20226;-61
2022/04/18 13:56:41;;;;;;;3.85;3.08;;;;;;;17.35;41.23;96217.88;10494021;28;20179;-61
2022/04/18 14:01:43;;;;;;;3.17;2.85;;;;;;;16.14;44.01;96266.72;10494484;28;20209;-62
2022/04/18 14:06:44;;;;;;;3.28;1.80;;;;;;;17.75;40.93;96230.06;10490029;28;20226;-60
2022/04/18 14:11:44;;;;;;;2.28;1.50;;;;;;;19.63;37.40;96174.06;10491900;28;20657;-61
2022/04/18 14:22:04;;;;;;;3.45;1.83;;;;;;;23.06;33.23;96127.34;10477795;28;20568;-62
2022/04/18 14:27:04;;;;;;;3.78;2.67;;;;;;;18.92;38.01;96130.50;10493344;28;20183;-58
2022/04/18 14:32:04;;;;;;;4.25;2.10;;;;;;;17.51;41.07;96194.56;10493290;28;20223;-60
2022/04/18 14:37:05;;;;;;;4.70;3.30;;;;;;;19.52;36.84;96129.69;10493130;28;20187;-60
2022/04/18 14:42:05;;;;;;;2.22;2.00;;;;;;;22.41;32.60;96083.56;10493332;28;20325;-62
2022/04/18 14:47:06;;;;;;;2.17;1.58;;;;;;;19.47;35.73;96076.44;10492945;28;20275;-60
2022/04/18 14:52:08;;;;;;;2.60;1.92;;;;;;;17.24;39.97;96136.47;10492990;28;20218;-62
2022/04/18 14:57:08;;;;;;;3.65;2.03;;;;;;;17.50;39.99;96151.38;10492799;28;20190;-60
2022/04/18 15:02:08;;;;;;;3.47;1.80;;;;;;;20.42;36.18;96133.13;10492648;28;20695;-60
2022/04/18 15:07:09;;;;;;;1.92;1.60;;;;;;;18.53;36.20;96059.91;10492968;28;20282;-61
2022/04/18 15:12:09;;;;;;;4.45;2.40;;;;;;;18.78;36.44;96079.41;10493505;28;20297;-61
2022/04/18 15:17:10;;;;;;;2.78;1.85;;;;;;;19.74;35.19;96052.88;10489160;28;20202;-59
2022/04/18 15:22:10;;;;;;;3.45;2.50;;;;;;;18.59;36.94;96076.78;10492171;28;20217;-62
2022/04/18 15:27:11;;;;;;;21.70;15.40;;;;;;;18.66;38.41;96138.53;10470897;28;20199;-61
2022/04/18 15:32:11;;;;;;;4.82;1.80;;;;;;;19.90;36.94;96128.50;10483771;28;20318;-61
2022/04/18 15:37:13;;;;;;;2.13;1.60;;;;;;;17.02;40.24;96118.25;10491696;28;20260;-60
2022/04/18 15:42:13;;;;;;;2.35;1.65;;;;;;;17.16;40.81;96136.72;10490709;28;20265;-61
2022/04/18 15:47:14;;;;;;;2.40;1.83;;;;;;;15.03;44.71;96186.84;10493686;28;20614;-58
2022/04/18 15:52:14;;;;;;;2.22;1.50;;;;;;;14.12;46.09;96208.84;10493769;28;20262;-59
2022/04/18 15:57:14;;;;;;;2.75;1.80;;;;;;;16.05;44.31;96234.44;10494464;28;20304;-61
2022/04/18 16:02:15;;;;;;;3.03;1.77;;;;;;;19.01;37.96;96142.44;10495385;28;20268;-57
2022/04/18 16:07:15;;;;;;;2.67;2.13;;;;;;;18.63;37.24;96082.44;10494277;28;20277;-61
2022/04/18 16:12:17;;;;;;;1.65;1.35;;;;;;;16.98;39.70;96103.03;10491419;28;20705;-62
2022/04/18 16:17:17;;;;;;;1.67;1.30;;;;;;;15.65;43.60;96166.50;10493030;28;20262;-60
2022/04/18 16:22:17;;;;;;;2.70;1.40;;;;;;;15.99;42.84;96170.00;10494236;28;20208;-61
2022/04/18 16:27:18;;;;;;;2.35;1.30;;;;;;;17.71;39.33;96123.72;10494307;28;20198;-59
2022/04/18 16:32:18;;;;;;;2.80;1.33;;;;;;;17.75;37.82;96061.34;10493865;28;20227;-60
2022/04/18 16:37:19;;;;;;;2.55;1.35;;;;;;;16.46;40.03;96081.84;10493171;28;20283;-58
2022/04/18 16:47:38;;;;;;;1.52;1.23;;;;;;;13.47;44.51;96124.66;10491659;28;20568;-56
2022/04/18 16:52:38;;;;;;;4.20;1.50;;;;;;;13.09;46.68;96179.28;10493219;28;20219;-60
2022/04/18 16:57:38;;;;;;;1.48;1.38;;;;;;;12.78;46.70;96164.59;10493261;28;20203;-59
2022/04/18 17:02:39;;;;;;;5.93;3.72;;;;;;;12.72;47.51;96189.78;10492915;28;20253;-61
2022/04/18 17:07:39;;;;;;;2.63;1.88;;;;;;;12.05;49.19;96220.38;10492667;28;20183;-60
2022/04/18 17:12:40;;;;;;;2.88;2.03;;;;;;;11.87;47.71;96167.34;10489104;28;20665;-59
2022/04/18 17:17:40;;;;;;;5.72;1.88;;;;;;;11.16;49.72;96197.19;10488973;28;20187;-57
2022/04/18 17:22:41;;;;;;;1.92;1.45;;;;;;;10.67;50.88;96224.47;10489399;28;20218;-60
2022/04/18 17:27:42;;;;;;;1.77;1.30;;;;;;;10.44;51.45;96231.38;10492106;28;20621;-59
2022/04/18 17:32:42;;;;;;;3.37;1.83;;;;;;;10.16;53.18;96263.16;10491182;28;20226;-58
2022/04/18 17:37:42;;;;;;;1.50;1.40;;;;;;;10.03;53.32;96276.75;10490535;28;20202;-61
2022/04/18 17:42:43;;;;;;;2.47;2.17;;;;;;;9.73;54.15;96293.88;10490393;28;20211;-61
2022/04/18 17:47:44;;;;;;;2.57;1.93;;;;;;;9.51;55.70;96324.06;10490043;28;20203;-61
2022/04/18 17:52:45;;;;;;;5.03;2.43;;;;;;;9.17;56.95;96351.06;10491005;28;20389;-60
2022/04/18 17:57:47;;;;;;;3.23;2.17;;;;;;;8.91;57.69;96368.44;10489664;28;20341;-60
2022/04/18 18:02:47;;;;;;;5.83;1.80;;;;;;;8.70;58.60;96387.06;10490719;28;20199;-57
2022/04/18 18:07:47;;;;;;;2.17;1.97;;;;;;;8.38;59.35;96396.25;10489079;28;20223;-58
2022/04/18 18:12:49;;;;;;;3.07;2.20;;;;;;;8.25;61.87;96450.59;10488583;28;20227;-59
2022/04/18 18:17:49;;;;;;;5.70;2.83;;;;;;;7.82;64.56;96494.66;10490264;28;20182;-58
2022/04/18 18:22:49;;;;;;;47.87;29.43;;;;;;;6.47;66.37;96515.63;10488934;28;20222;-58
2022/04/18 18:27:51;;;;;;;30.97;21.10;;;;;;;6.11;68.75;96549.09;10489694;28;20195;-60
2022/04/18 18:32:54;;;;;;;3.30;3.00;;;;;;;6.16;70.12;96553.91;10489414;28;20231;-56
2022/04/18 18:37:55;;;;;;;2.73;2.27;;;;;;;5.84;71.82;96542.69;10489835;28;20198;-54
2022/04/18 18:42:55;;;;;;;3.10;2.20;;;;;;;5.48;75.41;96551.81;10490103;28;20239;-56
2022/04/18 18:47:56;;;;;;;3.47;2.40;;;;;;;5.35;77.49;96555.44;10489504;28;20236;-55
2022/04/18 18:52:57;;;;;;;3.23;2.03;;;;;;;5.20;79.97;96548.09;10489619;28;20558;-57
2022/04/18 18:58:03;;;;;;;3.37;2.10;;;;;;;4.87;82.59;96542.97;10488734;28;20206;-56
2022/04/18 19:03:04;;;;;;;3.60;2.20;;;;;;;4.80;85.13;96529.66;10486415;28;20230;-56
2022/04/18 19:08:06;;;;;;;4.57;3.30;;;;;;;4.69;86.72;96536.69;10487446;28;20252;-53
2022/04/18 19:13:07;;;;;;;4.63;3.30;;;;;;;4.45;89.47;96537.69;10492928;28;20219;-54
2022/04/18 19:28:45;;;;;;;4.47;2.47;;;;;;;3.95;96.20;96534.72;10496211;28;20207;-53
2022/04/18 19:33:48;;;;;;;4.47;2.27;;;;;;;3.88;96.69;96530.03;10496023;28;20199;-54
2022/04/18 19:38:51;;;;;;;4.80;2.63;;;;;;;3.84;97.53;96533.78;10495971;28;20567;-55
2022/04/18 19:43:51;;;;;;;3.10;2.23;;;;;;;3.66;98.76;96530.88;10495766;28;20734;-54
2022/04/18 19:48:52;;;;;;;4.20;2.50;;;;;;;3.50;100.00;96530.38;10495681;28;20227;-54
2022/04/18 19:53:53;;;;;;;4.57;2.63;;;;;;;3.32;100.00;96524.84;10496371;28;20194;-55
2022/04/18 19:58:53;;;;;;;2.60;2.23;;;;;;;3.18;100.00;96529.28;10495370;28;20219;-58
2022/04/18 20:03:57;;;;;;;3.00;2.30;;;;;;;3.06;100.00;96526.78;10495649;28;20194;-57
2022/04/18 20:08:57;;;;;;;2.90;2.23;;;;;;;2.91;100.00;96519.25;10495192;28;20227;-60
2022/04/18 20:13:57;;;;;;;3.07;2.37;;;;;;;2.79;100.00;96525.31;10495142;28;20222;-53
2022/04/18 20:18:58;;;;;;;3.90;2.53;;;;;;;2.65;100.00;96516.81;10494504;28;20222;-59
2022/04/18 20:23:58;;;;;;;2.40;2.10;;;;;;;2.59;100.00;96511.25;10494420;28;20213;-56
2022/04/18 20:29:00;;;;;;;3.73;2.27;;;;;;;2.49;100.00;96524.03;10494787;28;20215;-59
2022/04/18 20:34:00;;;;;;;2.53;2.20;;;;;;;2.41;100.00;96514.25;10494859;28;20195;-57
2022/04/18 20:39:01;;;;;;;3.47;2.10;;;;;;;2.37;100.00;96512.00;10494467;28;20260;-58
2022/04/18 20:44:04;;;;;;;3.27;1.93;;;;;;;2.35;100.00;96506.13;10494609;28;20191;-58
2022/04/18 20:49:06;;;;;;;4.43;2.43;;;;;;;2.26;100.00;96511.00;10493711;28;20218;-59
2022/04/18 20:59:25;;;;;;;3.83;1.67;;;;;;;2.22;100.00;96500.97;10493587;28;20221;-53
2022/04/18 21:04:26;;;;;;;4.43;2.30;;;;;;;2.10;100.00;96502.69;10493648;28;20542;-58
2022/04/18 21:09:29;;;;;;;6.70;2.03;;;;;;;2.14;100.00;96498.94;10492274;28;20701;-53
2022/04/18 21:14:30;;;;;;;1.63;1.50;;;;;;;2.16;100.00;96496.25;10492451;28;20282;-54
2022/04/18 21:19:30;;;;;;;2.57;1.90;;;;;;;2.13;100.00;96492.97;10492861;28;20304;-56
2022/04/18 21:24:30;;;;;;;2.83;2.07;;;;;;;2.04;100.00;96496.19;10492461;28;20206;-52
2022/04/18 21:29:31;;;;;;;4.80;2.10;;;;;;;2.01;100.00;96500.78;10492580;28;20218;-52
2022/04/18 21:34:31;;;;;;;2.47;2.00;;;;;;;1.91;100.00;96492.84;10490741;28;20680;-52
2022/04/18 21:39:31;;;;;;;2.10;2.00;;;;;;;1.90;100.00;96493.75;10492536;28;20210;-52
2022/04/18 21:44:32;;;;;;;2.33;2.03;;;;;;;1.79;100.00;96491.94;10491796;28;20211;-52
2022/04/18 21:49:33;;;;;;;2.77;1.90;;;;;;;1.77;100.00;96484.28;10491570;28;20245;-52
2022/04/18 21:54:33;;;;;;;3.60;2.40;;;;;;;1.64;100.00;96480.94;10491911;28;20186;-55
2022/04/18 21:59:34;;;;;;;2.40;1.90;;;;;;;1.59;100.00;96468.34;10467170;22;20240;-60
2022/04/18 22:04:34;;;;;;;2.87;2.27;;;;;;;1.59;100.00;96462.34;10412709;28;20195;-59
2022/04/18 22:09:35;;;;;;;3.80;1.93;;;;;;;1.52;100.00;96463.72;10411362;28;20253;-59
2022/04/18 22:14:35;;;;;;;3.63;2.20;;;;;;;1.43;100.00;96455.66;10411664;28;20187;-58
2022/04/18 22:24:54;;;;;;;2.83;1.90;;;;;;;1.30;100.00;96454.84;10410836;28;20647;-55
2022/04/18 22:29:56;;;;;;;2.27;1.87;;;;;;;1.20;100.00;96452.09;10411135;28;20221;-60
2022/04/18 22:34:56;;;;;;;3.30;2.20;;;;;;;1.16;100.00;96444.66;10410686;28;20719;-59
2022/04/18 22:39:59;;;;;;;3.73;2.30;;;;;;;1.15;100.00;96437.84;10410821;28;20304;-56
2022/04/18 22:45:00;;;;;;;3.00;2.00;;;;;;;1.14;100.00;96431.88;10419024;28;20223;-55
2022/04/18 22:50:00;;;;;;;2.27;2.00;;;;;;;1.04;100.00;96423.94;10424086;28;20220;-60
2022/04/18 22:55:01;;;;;;;1.97;1.77;;;;;;;0.96;100.00;96410.72;10424463;28;20564;-59
2022/04/18 23:00:04;;;;;;;2.43;1.90;;;;;;;0.89;100.00;96417.25;10423565;28;20232;-59
2022/04/18 23:10:25;;;;;;;3.83;2.10;;;;;;;0.79;100.00;96421.38;10423556;28;20226;-59
2022/04/18 23:15:26;;;;;;;2.00;1.77;;;;;;;0.83;100.00;96408.16;10423669;28;20267;-56
2022/04/18 23:20:26;;;;;;;2.47;1.50;;;;;;;0.77;100.00;96411.16;10423592;28;20207;-58
2022/04/18 23:25:27;;;;;;;2.17;1.97;;;;;;;0.82;100.00;96400.53;10423462;28;20188;-55
2022/04/18 23:30:31;;;;;;;1.80;1.67;;;;;;;0.82;100.00;96385.88;10423676;28;20690;-59
2022/04/18 23:35:31;;;;;;;4.67;2.03;;;;;;;0.80;100.00;96381.78;10423080;28;20224;-57
2022/04/18 23:45:50;;;;;;;2.20;1.80;;;;;;;0.76;100.00;96363.09;10423297;28;20195;-59
2022/04/18 23:50:52;;;;;;;1.83;1.73;;;;;;;0.75;100.00;96358.88;10423077;28;20239;-55
2022/04/18 23:55:55;;;;;;;1.70;1.50;;;;;;;0.74;100.00;96366.72;10418864;28;20196;-55
